Time;durP1;ratioP1;P1;durP2;ratioP2;P2;SDS_P1;SDS_P2;PMS_P1;PMS_P2;Temp;Humidity;BMP_temperature;BMP_pressure;BME280_temperature;BME280_humidity;BME280_pressure;Samples;Min_cycle;Max_cycle;Signal;HPM_P1;HPM_P2
2023/09/20 00:01:59;;;;;;;4.90;2.70;;;;;;;;;;5082225;28;20051;-74
2023/09/20 00:04:30;;;;;;;8.73;2.65;;;;;;;;;;5081571;28;20044;-74
2023/09/20 00:07:01;;;;;;;6.45;2.40;;;;;;;;;;5081362;28;20043;-75
2023/09/20 00:09:32;;;;;;;4.85;2.20;;;;;;;;;;5081062;28;20059;-77
2023/09/20 00:12:03;;;;;;;8.27;2.85;;;;;;;;;;5081282;28;20052;-74
2023/09/20 00:14:33;;;;;;;15.35;3.08;;;;;;;;;;5080921;28;20048;-74
2023/09/20 00:17:04;;;;;;;7.95;2.30;;;;;;;;;;5063774;28;20040;-74
2023/09/20 00:19:38;;;;;;;5.95;2.42;;;;;;;;;;5080698;28;20063;-74
2023/09/20 00:22:10;;;;;;;13.25;3.47;;;;;;;;;;5081318;28;20051;-74
2023/09/20 00:24:42;;;;;;;6.93;2.90;;;;;;;;;;5081089;28;20059;-75
2023/09/20 00:27:13;;;;;;;7.20;2.72;;;;;;;;;;5081563;28;20522;-75
2023/09/20 00:29:43;;;;;;;15.50;2.72;;;;;;;;;;5080812;28;20207;-74
2023/09/20 00:32:14;;;;;;;6.50;2.38;;;;;;;;;;5062269;28;20079;-75
2023/09/20 00:34:45;;;;;;;8.15;2.55;;;;;;;;;;5063133;28;20056;-74
2023/09/20 00:37:15;;;;;;;11.45;2.60;;;;;;;;;;5081511;28;20048;-76
2023/09/20 00:39:47;;;;;;;9.60;2.67;;;;;;;;;;5062918;28;20529;-74
2023/09/20 00:42:19;;;;;;;6.63;2.03;;;;;;;;;;5062554;28;20048;-74
2023/09/20 00:44:52;;;;;;;8.77;2.53;;;;;;;;;;5062302;28;20418;-75
2023/09/20 00:47:26;;;;;;;7.57;2.63;;;;;;;;;;5080183;28;20058;-74
2023/09/20 00:49:57;;;;;;;7.63;3.55;;;;;;;;;;5066279;28;20062;-75
2023/09/20 00:52:28;;;;;;;7.50;2.83;;;;;;;;;;5065402;28;20426;-74
2023/09/20 00:55:03;;;;;;;7.20;3.13;;;;;;;;;;5066090;28;20063;-76
2023/09/20 00:57:33;;;;;;;5.75;2.85;;;;;;;;;;5066689;28;20713;-75
2023/09/20 01:00:20;;;;;;;6.07;3.15;;;;;;;;;;5084575;28;20495;-74
2023/09/20 01:02:57;;;;;;;11.73;3.13;;;;;;;;;;5065840;28;20083;-79
2023/09/20 01:05:34;;;;;;;6.15;3.50;;;;;;;;;;5084034;28;20044;-75
2023/09/20 01:08:06;;;;;;;7.50;3.40;;;;;;;;;;5084431;28;20059;-75
2023/09/20 01:10:37;;;;;;;6.40;3.13;;;;;;;;;;5065002;28;20056;-75
2023/09/20 01:13:12;;;;;;;9.88;3.20;;;;;;;;;;5084686;28;20056;-75
2023/09/20 01:15:44;;;;;;;;;;;;;;;;;;5085315;28;20104;-74
2023/09/20 01:18:14;;;;;;;4.85;3.13;;;;;;;;;;5084060;28;19924;-75
2023/09/20 01:20:45;;;;;;;5.93;3.28;;;;;;;;;;5083710;28;20048;-74
2023/09/20 01:23:15;;;;;;;5.65;3.28;;;;;;;;;;5081793;28;20403;-74
2023/09/20 01:25:46;;;;;;;9.77;3.00;;;;;;;;;;5065506;28;20454;-74
2023/09/20 01:28:17;;;;;;;5.93;3.38;;;;;;;;;;5083365;28;20561;-74
2023/09/20 01:30:50;;;;;;;7.95;3.00;;;;;;;;;;5084427;28;20056;-74
2023/09/20 01:33:21;;;;;;;6.82;2.88;;;;;;;;;;5083717;28;20051;-76
2023/09/20 01:35:54;;;;;;;7.15;2.60;;;;;;;;;;5065602;28;20055;-74
2023/09/20 01:38:25;;;;;;;6.95;2.83;;;;;;;;;;5083899;28;20414;-74
2023/09/20 01:40:57;;;;;;;8.73;2.38;;;;;;;;;;5084076;28;20043;-74
2023/09/20 01:43:30;;;;;;;5.97;3.00;;;;;;;;;;5064406;28;20052;-74
2023/09/20 01:46:02;;;;;;;9.00;3.40;;;;;;;;;;5084096;28;20537;-74
2023/09/20 01:48:34;;;;;;;5.97;3.15;;;;;;;;;;5065073;28;20071;-74
2023/09/20 01:51:04;;;;;;;10.00;3.58;;;;;;;;;;5083227;28;20047;-74
2023/09/20 01:53:36;;;;;;;4.80;2.95;;;;;;;;;;5083869;28;20048;-74
2023/09/20 01:56:07;;;;;;;7.88;3.58;;;;;;;;;;5083680;28;20430;-73
2023/09/20 01:58:38;;;;;;;4.75;3.10;;;;;;;;;;5065438;28;20050;-74
2023/09/20 02:01:09;;;;;;;15.18;4.55;;;;;;;;;;5064830;28;20051;-74
2023/09/20 02:03:40;;;;;;;9.20;3.63;;;;;;;;;;5064866;28;20044;-76
2023/09/20 02:06:11;;;;;;;14.00;4.55;;;;;;;;;;5083452;28;20848;-73
2023/09/20 02:08:41;;;;;;;10.13;3.78;;;;;;;;;;5083908;28;20049;-73
2023/09/20 02:11:12;;;;;;;6.68;3.90;;;;;;;;;;5084155;28;20498;-73
2023/09/20 02:13:43;;;;;;;8.90;3.95;;;;;;;;;;5064792;28;20051;-75
2023/09/20 02:16:14;;;;;;;13.15;4.22;;;;;;;;;;5083289;28;20401;-73
2023/09/20 02:18:46;;;;;;;12.82;3.92;;;;;;;;;;5082915;28;20078;-74
2023/09/20 02:21:16;;;;;;;11.35;4.38;;;;;;;;;;5082931;28;20048;-74
2023/09/20 02:23:48;;;;;;;9.80;4.35;;;;;;;;;;5060635;28;20056;-74
2023/09/20 02:26:19;;;;;;;16.58;4.10;;;;;;;;;;5063013;28;21173;-74
2023/09/20 02:28:51;;;;;;;12.65;3.72;;;;;;;;;;5063201;28;20415;-73
2023/09/20 02:31:21;;;;;;;16.92;4.15;;;;;;;;;;5062951;28;20044;-73
2023/09/20 02:33:54;;;;;;;11.75;4.45;;;;;;;;;;5060823;28;20048;-73
2023/09/20 02:36:27;;;;;;;10.32;3.72;;;;;;;;;;5060958;28;20602;-74
2023/09/20 02:38:59;;;;;;;9.13;3.35;;;;;;;;;;5060069;28;20056;-74
2023/09/20 02:41:31;;;;;;;13.25;4.43;;;;;;;;;;5062676;28;20045;-74
2023/09/20 02:44:04;;;;;;;22.50;3.92;;;;;;;;;;5062589;28;20531;-73
2023/09/20 02:46:35;;;;;;;49.50;4.55;;;;;;;;;;5062892;28;20057;-74
2023/09/20 02:49:07;;;;;;;66.30;6.55;;;;;;;;;;5062304;28;20499;-74
2023/09/20 02:51:38;;;;;;;40.40;4.93;;;;;;;;;;5061916;28;20060;-73
2023/09/20 02:54:09;;;;;;;48.45;4.53;;;;;;;;;;5062205;28;20040;-74
2023/09/20 02:56:41;;;;;;;51.92;5.32;;;;;;;;;;5062009;28;20052;-74
2023/09/20 02:59:11;;;;;;;61.20;5.03;;;;;;;;;;5062458;28;20045;-74
2023/09/20 03:01:44;;;;;;;70.95;5.90;;;;;;;;;;5045021;28;20053;-73
2023/09/20 03:04:15;;;;;;;89.50;5.10;;;;;;;;;;5060433;28;20052;-73
2023/09/20 03:06:47;;;;;;;53.75;5.55;;;;;;;;;;5060643;28;20049;-74
2023/09/20 03:09:17;;;;;;;32.17;4.22;;;;;;;;;;5061737;28;20063;-74
2023/09/20 03:11:48;;;;;;;25.63;3.88;;;;;;;;;;5060289;28;20052;-74
2023/09/20 03:14:20;;;;;;;22.08;3.85;;;;;;;;;;5062629;28;20064;-75
2023/09/20 03:16:52;;;;;;;75.68;4.85;;;;;;;;;;5061075;28;20548;-73
2023/09/20 03:19:22;;;;;;;19.98;3.90;;;;;;;;;;5044476;28;20558;-73
2023/09/20 03:21:54;;;;;;;15.63;3.85;;;;;;;;;;5060291;28;20060;-74
2023/09/20 03:24:29;;;;;;;26.15;4.05;;;;;;;;;;5060576;28;20053;-74
2023/09/20 03:27:02;;;;;;;30.35;4.20;;;;;;;;;;5060219;28;20586;-74
2023/09/20 03:29:33;;;;;;;20.15;3.60;;;;;;;;;;5061884;28;20051;-73
2023/09/20 03:32:04;;;;;;;36.08;4.05;;;;;;;;;;5060481;28;20060;-73
2023/09/20 03:34:35;;;;;;;26.95;3.78;;;;;;;;;;5060303;28;20621;-73
2023/09/20 03:37:09;;;;;;;47.58;4.32;;;;;;;;;;5060298;28;20053;-74
2023/09/20 03:39:41;;;;;;;19.20;4.28;;;;;;;;;;5061169;28;20053;-74
2023/09/20 03:42:11;;;;;;;16.58;4.28;;;;;;;;;;5060103;28;20045;-74
2023/09/20 03:44:42;;;;;;;66.55;4.97;;;;;;;;;;5060414;28;20064;-74
2023/09/20 03:47:13;;;;;;;119.32;6.88;;;;;;;;;;5060172;28;20056;-74
2023/09/20 03:49:43;;;;;;;44.03;4.53;;;;;;;;;;5061570;28;20416;-73
2023/09/20 03:52:14;;;;;;;37.45;4.20;;;;;;;;;;5060176;28;20044;-73
2023/09/20 03:54:51;;;;;;;82.97;4.97;;;;;;;;;;5060547;28;20064;-73
2023/09/20 03:57:24;;;;;;;39.65;4.45;;;;;;;;;;5060089;28;20052;-74
2023/09/20 03:59:59;;;;;;;42.45;4.22;;;;;;;;;;5060272;28;20427;-73
2023/09/20 04:02:40;;;;;;;10.20;3.72;;;;;;;;;;5061304;28;20056;-73
2023/09/20 04:05:16;;;;;;;21.88;4.00;;;;;;;;;;5060668;28;20052;-74
2023/09/20 04:08:08;;;;;;;67.72;5.32;;;;;;;;;;5061210;28;20146;-74
2023/09/20 04:10:38;;;;;;;37.95;4.25;;;;;;;;;;5060385;28;20403;-73
2023/09/20 04:13:08;;;;;;;23.05;3.97;;;;;;;;;;5061877;28;20522;-76
2023/09/20 04:15:42;;;;;;;35.30;3.85;;;;;;;;;;5060984;28;20052;-73
2023/09/20 04:18:13;;;;;;;26.67;3.60;;;;;;;;;;5059536;28;20064;-73
2023/09/20 04:20:46;;;;;;;31.55;3.40;;;;;;;;;;5061126;28;20507;-74
2023/09/20 04:23:20;;;;;;;46.45;3.92;;;;;;;;;;5068876;28;20063;-73
2023/09/20 04:25:51;;;;;;;56.38;4.15;;;;;;;;;;5066667;28;20506;-73
2023/09/20 04:28:22;;;;;;;28.83;4.45;;;;;;;;;;5066662;28;20051;-73
2023/09/20 04:30:52;;;;;;;21.70;3.78;;;;;;;;;;5085103;28;20871;-74
2023/09/20 04:33:23;;;;;;;15.10;3.97;;;;;;;;;;5066982;28;20063;-73
2023/09/20 04:35:57;;;;;;;38.20;4.07;;;;;;;;;;5067147;28;20051;-73
2023/09/20 04:38:29;;;;;;;31.30;3.78;;;;;;;;;;5067553;28;20056;-74
2023/09/20 04:40:59;;;;;;;23.45;4.63;;;;;;;;;;5066914;28;20052;-74
2023/09/20 04:43:30;;;;;;;20.92;3.65;;;;;;;;;;5067214;28;20552;-73
2023/09/20 04:46:03;;;;;;;8.75;3.78;;;;;;;;;;5084300;28;20071;-74
2023/09/20 04:48:35;;;;;;;8.38;4.82;;;;;;;;;;5084798;28;20510;-75
2023/09/20 04:51:05;;;;;;;13.93;4.90;;;;;;;;;;5084557;28;20047;-74
2023/09/20 04:53:35;;;;;;;12.32;3.30;;;;;;;;;;5084740;28;20098;-74
2023/09/20 04:56:06;;;;;;;6.68;3.85;;;;;;;;;;5084861;28;20782;-73
2023/09/20 04:58:38;;;;;;;8.20;3.70;;;;;;;;;;5065808;28;20431;-74
2023/09/20 05:01:13;;;;;;;8.70;3.17;;;;;;;;;;5084103;28;20051;-73
2023/09/20 05:03:44;;;;;;;;;;;;;;;;;;5066589;28;20773;-74
2023/09/20 05:06:15;;;;;;;8.77;3.33;;;;;;;;;;5066002;28;19920;-74
2023/09/20 05:08:49;;;;;;;9.45;3.42;;;;;;;;;;5066049;28;20067;-73
2023/09/20 05:11:20;;;;;;;6.80;2.97;;;;;;;;;;5065840;28;20043;-73
2023/09/20 05:13:52;;;;;;;7.32;3.50;;;;;;;;;;5066392;28;20525;-73
2023/09/20 05:16:23;;;;;;;8.40;3.30;;;;;;;;;;5066188;28;20043;-73
2023/09/20 05:18:54;;;;;;;7.20;3.65;;;;;;;;;;5066120;28;20404;-73
2023/09/20 05:21:24;;;;;;;11.02;3.47;;;;;;;;;;5065357;28;20632;-73
2023/09/20 05:23:54;;;;;;;14.52;3.67;;;;;;;;;;5083823;28;20052;-73
2023/09/20 05:26:26;;;;;;;13.48;4.40;;;;;;;;;;5065763;28;20510;-73
2023/09/20 05:28:58;;;;;;;13.52;4.57;;;;;;;;;;5065740;28;20048;-74
2023/09/20 05:31:29;;;;;;;18.13;5.35;;;;;;;;;;5084212;28;20048;-73
2023/09/20 05:34:00;;;;;;;22.38;4.80;;;;;;;;;;5083709;28;20804;-73
2023/09/20 05:36:31;;;;;;;37.05;5.72;;;;;;;;;;5084143;28;20048;-73
2023/09/20 05:39:06;;;;;;;14.38;5.38;;;;;;;;;;5083803;28;20048;-74
2023/09/20 05:41:36;;;;;;;28.90;5.65;;;;;;;;;;5084057;28;20047;-74
2023/09/20 05:44:07;;;;;;;26.60;6.53;;;;;;;;;;5084431;28;20051;-73
2023/09/20 05:46:37;;;;;;;32.40;6.50;;;;;;;;;;5083975;28;20521;-73
2023/09/20 05:49:09;;;;;;;16.00;6.35;;;;;;;;;;5083836;28;20052;-73
2023/09/20 05:51:40;;;;;;;20.83;6.13;;;;;;;;;;5084001;28;20063;-74
2023/09/20 05:54:11;;;;;;;14.82;5.95;;;;;;;;;;5066041;28;20047;-73
2023/09/20 05:56:44;;;;;;;15.73;6.05;;;;;;;;;;5083576;28;20396;-73
2023/09/20 05:59:16;;;;;;;19.42;6.05;;;;;;;;;;5083438;28;20513;-73
2023/09/20 06:01:47;;;;;;;15.98;5.97;;;;;;;;;;5064720;28;20075;-74
2023/09/20 06:04:18;;;;;;;10.80;4.82;;;;;;;;;;5083423;28;20517;-73
2023/09/20 06:06:50;;;;;;;10.02;4.57;;;;;;;;;;5065654;28;20048;-74
2023/09/20 06:09:24;;;;;;;13.27;4.75;;;;;;;;;;5066046;28;20059;-74
2023/09/20 06:11:55;;;;;;;12.82;5.70;;;;;;;;;;5083389;28;20059;-73
2023/09/20 06:14:25;;;;;;;17.63;5.50;;;;;;;;;;5083414;28;20299;-73
2023/09/20 06:16:55;;;;;;;9.60;4.68;;;;;;;;;;5083372;28;20597;-73
2023/09/20 06:19:30;;;;;;;13.80;4.40;;;;;;;;;;5083205;28;20044;-73
2023/09/20 06:22:00;;;;;;;13.27;4.40;;;;;;;;;;5083163;28;20515;-74
2023/09/20 06:24:30;;;;;;;17.08;5.03;;;;;;;;;;5064079;28;20554;-73
2023/09/20 06:27:01;;;;;;;12.85;5.03;;;;;;;;;;5082879;28;20514;-74
2023/09/20 06:29:34;;;;;;;13.45;4.88;;;;;;;;;;5083386;28;20388;-73
2023/09/20 06:32:04;;;;;;;13.70;4.50;;;;;;;;;;5083432;28;20043;-73
2023/09/20 06:34:34;;;;;;;23.88;4.82;;;;;;;;;;5082943;28;20040;-73
2023/09/20 06:37:25;;;;;;;14.50;4.70;;;;;;;;;;5082746;28;20051;-73
2023/09/20 06:39:56;;;;;;;12.27;5.07;;;;;;;;;;5082567;28;20443;-73
2023/09/20 06:42:29;;;;;;;19.77;4.93;;;;;;;;;;5082759;28;20491;-73
2023/09/20 06:44:59;;;;;;;13.93;4.72;;;;;;;;;;5082062;28;20410;-74
2023/09/20 06:47:31;;;;;;;11.18;4.80;;;;;;;;;;5082035;28;20525;-74
2023/09/20 06:50:03;;;;;;;16.52;5.05;;;;;;;;;;5064251;28;20063;-73
2023/09/20 06:52:35;;;;;;;97.65;5.95;;;;;;;;;;5082329;28;20055;-74
2023/09/20 06:55:06;;;;;;;99.13;5.72;;;;;;;;;;5082197;28;20048;-73
2023/09/20 06:57:36;;;;;;;132.27;6.47;;;;;;;;;;5082511;28;20052;-73
2023/09/20 07:00:30;;;;;;;124.97;6.50;;;;;;;;;;5082335;28;20044;-73
2023/09/20 07:02:59;;;;;;;29.52;5.18;;;;;;;;;;5082855;28;20062;-73
2023/09/20 07:05:30;;;;;;;22.23;4.30;;;;;;;;;;5082724;28;20052;-73
2023/09/20 07:08:01;;;;;;;61.35;5.00;;;;;;;;;;5082954;28;20052;-73
2023/09/20 07:10:33;;;;;;;110.30;5.45;;;;;;;;;;5064255;28;20060;-73
2023/09/20 07:13:05;;;;;;;38.83;4.38;;;;;;;;;;5082328;28;20495;-74
2023/09/20 07:15:36;;;;;;;6.00;3.80;;;;;;;;;;5082240;28;20039;-73
2023/09/20 07:18:11;;;;;;;10.27;3.78;;;;;;;;;;5081897;28;20043;-73
2023/09/20 07:20:44;;;;;;;11.93;3.92;;;;;;;;;;5082195;28;20540;-74
2023/09/20 07:23:15;;;;;;;5.35;2.80;;;;;;;;;;5081765;28;20048;-73
2023/09/20 07:25:49;;;;;;;5.65;2.97;;;;;;;;;;5063435;28;20070;-73
2023/09/20 07:28:22;;;;;;;7.05;3.40;;;;;;;;;;5082550;28;20052;-73
2023/09/20 07:30:55;;;;;;;7.57;3.38;;;;;;;;;;5063698;28;20510;-73
2023/09/20 07:33:29;;;;;;;7.50;2.90;;;;;;;;;;5082217;28;20439;-73
2023/09/20 07:36:00;;;;;;;8.75;2.92;;;;;;;;;;5082046;28;20410;-73
2023/09/20 07:38:32;;;;;;;7.97;2.88;;;;;;;;;;5082296;28;20047;-74
2023/09/20 07:41:17;;;;;;;7.30;2.85;;;;;;;;;;5081712;28;20570;-73
2023/09/20 07:43:48;;;;;;;68.65;3.83;;;;;;;;;;5081696;28;20055;-74
2023/09/20 07:46:20;;;;;;;9.65;2.55;;;;;;;;;;5081923;28;20052;-73
2023/09/20 07:48:51;;;;;;;5.20;2.85;;;;;;;;;;5081957;28;20044;-74
2023/09/20 07:51:23;;;;;;;10.18;3.53;;;;;;;;;;5082308;28;20059;-73
2023/09/20 07:53:54;;;;;;;9.35;3.58;;;;;;;;;;5082053;28;20075;-73
2023/09/20 07:56:26;;;;;;;7.25;2.75;;;;;;;;;;5082018;28;20048;-73
2023/09/20 07:58:57;;;;;;;5.55;2.63;;;;;;;;;;5085661;28;20067;-74
2023/09/20 08:01:30;;;;;;;12.90;3.10;;;;;;;;;;5086177;28;20667;-73
2023/09/20 08:04:00;;;;;;;41.15;3.33;;;;;;;;;;5085410;28;20507;-73
2023/09/20 08:06:35;;;;;;;10.75;2.28;;;;;;;;;;5086071;28;20040;-74
2023/09/20 08:09:06;;;;;;;11.43;2.70;;;;;;;;;;5067358;28;20048;-74
2023/09/20 08:11:37;;;;;;;8.38;2.50;;;;;;;;;;5085949;28;20067;-74
2023/09/20 08:14:07;;;;;;;16.10;2.72;;;;;;;;;;5085979;28;20048;-74
2023/09/20 08:16:38;;;;;;;6.05;2.60;;;;;;;;;;5085271;28;20397;-73
2023/09/20 08:19:31;;;;;;;8.77;2.53;;;;;;;;;;5066587;28;20511;-74
2023/09/20 08:22:03;;;;;;;8.05;2.42;;;;;;;;;;5085493;28;20052;-73
2023/09/20 09:01:13;;;;;;;7.03;2.60;;;;;;;;;;5084685;28;20055;-74
2023/09/20 09:03:43;;;;;;;16.00;2.80;;;;;;;;;;5085110;28;20083;-73
2023/09/20 09:06:14;;;;;;;14.80;3.25;;;;;;;;;;5085231;28;20502;-73
2023/09/20 09:08:45;;;;;;;7.40;2.75;;;;;;;;;;5065387;28;20048;-73
2023/09/20 09:11:16;;;;;;;8.93;3.10;;;;;;;;;;5066696;28;20052;-73
2023/09/20 09:13:47;;;;;;;15.98;3.58;;;;;;;;;;5084734;28;20062;-73
2023/09/20 09:16:20;;;;;;;10.93;3.92;;;;;;;;;;5084357;28;20047;-73
2023/09/20 09:18:50;;;;;;;12.52;3.35;;;;;;;;;;5084652;28;20055;-73
2023/09/20 09:21:21;;;;;;;17.65;3.38;;;;;;;;;;5065368;28;20063;-73
2023/09/20 09:23:52;;;;;;;26.95;4.00;;;;;;;;;;5083699;28;20060;-74
2023/09/20 09:26:25;;;;;;;20.52;3.55;;;;;;;;;;5084242;28;20431;-76
2023/09/20 09:28:56;;;;;;;7.75;4.18;;;;;;;;;;5084131;28;20051;-73
2023/09/20 09:31:29;;;;;;;21.83;3.65;;;;;;;;;;5085204;28;20522;-73
2023/09/20 09:34:01;;;;;;;15.52;3.92;;;;;;;;;;5083576;28;20066;-74
2023/09/20 09:36:32;;;;;;;25.38;4.45;;;;;;;;;;5084456;28;20051;-73
2023/09/20 09:39:18;;;;;;;17.13;3.28;;;;;;;;;;5083837;28;20048;-74
2023/09/20 09:42:02;;;;;;;21.02;3.33;;;;;;;;;;5084151;28;20047;-74
2023/09/20 09:44:55;;;;;;;20.25;3.13;;;;;;;;;;5084179;28;20043;-74
2023/09/20 09:47:26;;;;;;;48.47;3.05;;;;;;;;;;5083710;28;20040;-74
2023/09/20 09:50:01;;;;;;;13.02;2.72;;;;;;;;;;5083600;28;20051;-74
2023/09/20 09:52:35;;;;;;;45.00;3.03;;;;;;;;;;5083822;28;20725;-74
2023/09/20 09:55:07;;;;;;;27.23;3.10;;;;;;;;;;5083525;28;20500;-74
2023/09/20 09:57:38;;;;;;;14.68;3.00;;;;;;;;;;5065003;28;20533;-74
2023/09/20 10:00:10;;;;;;;27.67;3.20;;;;;;;;;;5084303;28;20052;-73
2023/09/20 10:02:43;;;;;;;23.92;3.25;;;;;;;;;;5083241;28;20506;-74
2023/09/20 10:05:15;;;;;;;29.67;3.45;;;;;;;;;;5083811;28;20514;-73
2023/09/20 10:07:57;;;;;;;26.60;3.70;;;;;;;;;;5083627;28;20052;-73
2023/09/20 10:10:28;;;;;;;24.40;3.78;;;;;;;;;;5083449;28;20580;-73
2023/09/20 10:12:59;;;;;;;15.40;3.67;;;;;;;;;;5083375;28;20048;-75
2023/09/20 10:15:33;;;;;;;27.98;4.30;;;;;;;;;;5082810;28;20079;-73
2023/09/20 10:18:05;;;;;;;10.63;4.50;;;;;;;;;;5083333;28;20044;-73
2023/09/20 10:21:10;;;;;;;8.30;3.88;;;;;;;;;;5083282;28;20040;-74
2023/09/20 10:23:42;;;;;;;8.98;3.00;;;;;;;;;;5080004;28;20056;-74
2023/09/20 10:26:14;;;;;;;8.48;2.97;;;;;;;;;;5082993;28;20047;-74
2023/09/20 10:28:48;;;;;;;4.32;2.85;;;;;;;;;;5064904;28;20052;-74
2023/09/20 10:31:20;;;;;;;14.80;2.38;;;;;;;;;;5083013;28;20040;-74
2023/09/20 10:33:55;;;;;;;14.50;2.53;;;;;;;;;;5083299;28;20044;-74
2023/09/20 10:36:30;;;;;;;7.00;3.55;;;;;;;;;;5082310;28;20047;-74
2023/09/20 10:39:21;;;;;;;15.50;2.90;;;;;;;;;;5082719;28;20048;-75
2023/09/20 10:41:53;;;;;;;8.77;2.60;;;;;;;;;;5065039;28;20055;-74
2023/09/20 10:44:36;;;;;;;6.13;2.63;;;;;;;;;;5064070;28;20055;-74
2023/09/20 10:47:19;;;;;;;5.63;2.03;;;;;;;;;;5083059;28;20054;-74
2023/09/20 10:49:52;;;;;;;4.30;2.13;;;;;;;;;;5065102;28;20047;-73
2023/09/20 10:52:34;;;;;;;2.45;1.95;;;;;;;;;;5082478;28;20055;-73
2023/09/20 10:55:22;;;;;;;2.75;1.90;;;;;;;;;;5082575;28;20063;-74
2023/09/20 10:57:56;;;;;;;2.40;1.80;;;;;;;;;;5082961;28;20044;-74
2023/09/20 11:00:30;;;;;;;2.85;1.50;;;;;;;;;;5082858;28;20514;-74
2023/09/20 11:03:06;;;;;;;2.53;1.45;;;;;;;;;;5064115;28;20514;-73
2023/09/20 11:05:38;;;;;;;3.78;1.60;;;;;;;;;;5063775;28;20484;-74
2023/09/20 11:08:13;;;;;;;2.17;1.40;;;;;;;;;;5082131;28;20044;-74
2023/09/20 11:10:46;;;;;;;2.30;1.48;;;;;;;;;;5082583;28;20470;-74
2023/09/20 11:13:19;;;;;;;2.35;1.52;;;;;;;;;;5082171;28;20400;-74
2023/09/20 11:15:49;;;;;;;3.72;1.60;;;;;;;;;;5081908;28;20823;-74
2023/09/20 11:18:20;;;;;;;2.75;2.22;;;;;;;;;;5064822;28;20067;-74
2023/09/20 11:20:51;;;;;;;10.27;2.38;;;;;;;;;;5082076;28;20036;-74
2023/09/20 11:23:22;;;;;;;5.32;2.53;;;;;;;;;;5081754;28;20064;-74
2023/09/20 11:25:55;;;;;;;5.55;2.55;;;;;;;;;;5082599;28;20483;-74
2023/09/20 11:28:27;;;;;;;7.85;2.72;;;;;;;;;;5082380;28;20130;-76
2023/09/20 11:30:58;;;;;;;5.43;3.03;;;;;;;;;;5082209;28;20047;-74
2023/09/20 11:33:30;;;;;;;5.13;2.47;;;;;;;;;;5081287;28;20549;-74
2023/09/20 11:36:01;;;;;;;7.28;3.47;;;;;;;;;;5081648;28;20044;-74
2023/09/20 11:38:35;;;;;;;5.82;3.65;;;;;;;;;;5081690;28;20058;-77
2023/09/20 11:41:09;;;;;;;5.13;3.28;;;;;;;;;;5082575;28;20514;-75
2023/09/20 11:43:41;;;;;;;3.72;2.45;;;;;;;;;;5082089;28;20052;-74
2023/09/20 11:46:11;;;;;;;4.03;2.33;;;;;;;;;;5081792;28;20537;-74
2023/09/20 11:48:43;;;;;;;6.47;3.15;;;;;;;;;;5082027;28;20052;-75
2023/09/20 11:51:15;;;;;;;4.88;3.25;;;;;;;;;;5081465;28;20532;-75
2023/09/20 11:53:46;;;;;;;6.13;2.78;;;;;;;;;;5081603;28;20403;-74
2023/09/20 11:56:29;;;;;;;3.70;3.03;;;;;;;;;;5082402;28;20074;-74
2023/09/20 11:59:01;;;;;;;5.63;2.85;;;;;;;;;;5081488;28;20384;-78
2023/09/20 12:01:33;;;;;;;2.92;2.38;;;;;;;;;;5080902;28;20040;-74
2023/09/20 12:04:04;;;;;;;3.60;2.38;;;;;;;;;;5082039;28;20047;-74
2023/09/20 12:06:35;;;;;;;4.97;2.58;;;;;;;;;;5081666;28;20052;-74
2023/09/20 12:09:06;;;;;;;7.57;2.47;;;;;;;;;;5081578;28;20160;-75
2023/09/20 12:11:36;;;;;;;3.15;2.13;;;;;;;;;;5081476;28;20071;-75
2023/09/20 12:14:13;;;;;;;9.20;2.75;;;;;;;;;;5082036;28;20067;-74
2023/09/20 12:16:47;;;;;;;3.05;1.90;;;;;;;;;;5081244;28;20048;-74
2023/09/20 12:19:18;;;;;;;3.00;2.20;;;;;;;;;;5063169;28;20055;-75
2023/09/20 12:21:51;;;;;;;4.45;2.17;;;;;;;;;;5082358;28;20047;-74
2023/09/20 12:24:22;;;;;;;3.08;1.80;;;;;;;;;;5080673;28;20052;-79
2023/09/20 12:26:55;;;;;;;2.88;1.80;;;;;;;;;;5081938;28;20042;-75
2023/09/20 12:29:27;;;;;;;2.05;1.80;;;;;;;;;;5081575;28;20052;-76
2023/09/20 12:31:58;;;;;;;3.08;1.85;;;;;;;;;;5081723;28;20048;-77
2023/09/20 12:34:30;;;;;;;3.78;1.95;;;;;;;;;;5082034;28;20529;-76
2023/09/20 12:37:01;;;;;;;4.78;1.88;;;;;;;;;;5081777;28;20075;-77
2023/09/20 12:39:31;;;;;;;2.17;1.60;;;;;;;;;;5081237;28;20044;-76
2023/09/20 12:42:02;;;;;;;3.13;1.73;;;;;;;;;;5081360;28;20522;-76
2023/09/20 12:44:35;;;;;;;1.90;1.42;;;;;;;;;;5083576;28;20549;-77
2023/09/20 12:47:07;;;;;;;3.85;1.67;;;;;;;;;;5066536;28;20052;-76
2023/09/20 12:49:38;;;;;;;4.60;1.85;;;;;;;;;;5067032;28;20086;-77
2023/09/20 12:52:09;;;;;;;5.53;1.63;;;;;;;;;;5085654;28;20048;-76
2023/09/20 12:54:39;;;;;;;1.95;1.52;;;;;;;;;;5086971;28;20047;-76
2023/09/20 12:57:14;;;;;;;1.70;1.23;;;;;;;;;;5084846;28;20055;-78
2023/09/20 12:59:46;;;;;;;4.05;1.30;;;;;;;;;;5090214;28;20055;-77
2023/09/20 13:02:17;;;;;;;2.58;1.63;;;;;;;;;;5104474;28;20054;-76
2023/09/20 13:04:50;;;;;;;2.35;1.80;;;;;;;;;;5102011;28;20051;-76
2023/09/20 13:07:21;;;;;;;5.30;1.63;;;;;;;;;;5102323;28;20054;-76
2023/09/20 13:09:52;;;;;;;4.93;2.10;;;;;;;;;;5105418;28;20047;-77
2023/09/20 13:12:22;;;;;;;3.42;1.80;;;;;;;;;;5105242;28;20524;-77
2023/09/20 13:14:53;;;;;;;5.72;3.00;;;;;;;;;;5105130;28;20051;-77
2023/09/20 13:17:23;;;;;;;2.92;1.50;;;;;;;;;;5105123;28;20425;-76
2023/09/20 13:19:53;;;;;;;2.17;1.52;;;;;;;;;;5104895;28;20043;-74
2023/09/20 13:22:27;;;;;;;2.53;1.60;;;;;;;;;;5087572;28;20858;-75
2023/09/20 13:25:00;;;;;;;1.55;1.45;;;;;;;;;;5104248;28;20062;-74
2023/09/20 13:27:31;;;;;;;5.88;1.85;;;;;;;;;;5104655;28;20044;-75
2023/09/20 13:30:01;;;;;;;115.63;22.90;;;;;;;;;;5104884;28;20047;-78
2023/09/20 13:32:32;;;;;;;3.35;1.80;;;;;;;;;;5104354;28;20536;-74
2023/09/20 13:35:03;;;;;;;3.08;1.73;;;;;;;;;;5105085;28;20055;-79
2023/09/20 13:37:35;;;;;;;4.78;1.70;;;;;;;;;;5104232;28;20039;-74
2023/09/20 13:40:05;;;;;;;4.28;1.70;;;;;;;;;;5104614;28;20052;-74
2023/09/20 13:42:36;;;;;;;1.98;1.77;;;;;;;;;;5104286;28;20050;-74
2023/09/20 13:45:09;;;;;;;7.10;1.92;;;;;;;;;;5104244;28;20063;-74
2023/09/20 13:47:41;;;;;;;2.92;1.38;;;;;;;;;;5104592;28;20044;-75
2023/09/20 13:50:15;;;;;;;5.25;1.67;;;;;;;;;;5104325;28;20035;-75
2023/09/20 13:52:47;;;;;;;6.93;1.92;;;;;;;;;;5105306;28;20036;-74
2023/09/20 13:55:18;;;;;;;6.10;1.67;;;;;;;;;;5104097;28;20048;-74
2023/09/20 13:58:01;;;;;;;2.72;1.60;;;;;;;;;;5103999;28;20048;-74
2023/09/20 14:00:31;;;;;;;3.10;1.33;;;;;;;;;;5103957;28;20047;-74
2023/09/20 14:03:02;;;;;;;2.00;1.42;;;;;;;;;;5104047;28;20047;-74
2023/09/20 14:05:33;;;;;;;3.30;1.48;;;;;;;;;;5103958;28;20048;-74
2023/09/20 14:08:03;;;;;;;1.40;1.30;;;;;;;;;;5103933;28;20043;-75
2023/09/20 14:10:33;;;;;;;3.40;2.00;;;;;;;;;;5103897;28;20051;-74
2023/09/20 14:13:04;;;;;;;2.95;1.45;;;;;;;;;;5104445;28;20056;-74
2023/09/20 14:15:36;;;;;;;3.92;1.30;;;;;;;;;;5103542;28;20044;-74
2023/09/20 14:18:08;;;;;;;5.28;2.33;;;;;;;;;;5103623;28;20443;-75
2023/09/20 14:20:40;;;;;;;2.83;1.48;;;;;;;;;;5087028;28;20048;-74
2023/09/20 14:23:10;;;;;;;4.40;1.42;;;;;;;;;;5102899;28;20056;-75
2023/09/20 14:25:41;;;;;;;1.90;1.42;;;;;;;;;;5103467;28;20498;-74
2023/09/20 14:28:11;;;;;;;4.30;1.67;;;;;;;;;;5103148;28;20075;-74
2023/09/20 14:30:43;;;;;;;4.00;1.58;;;;;;;;;;5103185;28;20050;-75
2023/09/20 14:33:14;;;;;;;2.85;1.20;;;;;;;;;;5103485;28;20400;-75
2023/09/20 14:35:45;;;;;;;1.83;1.38;;;;;;;;;;5102984;28;20044;-78
2023/09/20 14:38:15;;;;;;;1.70;1.40;;;;;;;;;;5102988;28;20142;-76
2023/09/20 14:40:45;;;;;;;4.55;1.50;;;;;;;;;;5102778;28;20047;-76
2023/09/20 14:43:16;;;;;;;2.03;1.83;;;;;;;;;;5103187;28;20039;-75
2023/09/20 14:45:48;;;;;;;3.08;1.80;;;;;;;;;;5102563;28;20048;-75
2023/09/20 14:48:18;;;;;;;1.65;1.35;;;;;;;;;;5102864;28;20540;-75
2023/09/20 14:50:49;;;;;;;4.38;1.17;;;;;;;;;;5102769;28;20057;-76
2023/09/20 14:53:19;;;;;;;1.60;1.30;;;;;;;;;;5083933;28;20074;-75
2023/09/20 14:55:49;;;;;;;1.63;1.50;;;;;;;;;;5102837;28;20055;-78
2023/09/20 14:58:19;;;;;;;1.75;1.40;;;;;;;;;;5102744;28;20303;-74
2023/09/20 15:00:50;;;;;;;2.33;1.40;;;;;;;;;;5102473;28;20868;-73
2023/09/20 15:03:20;;;;;;;3.35;1.20;;;;;;;;;;5102253;28;20066;-78
2023/09/20 15:05:51;;;;;;;1.52;1.23;;;;;;;;;;5083508;28;20059;-73
2023/09/20 15:08:23;;;;;;;1.73;1.20;;;;;;;;;;5101743;28;20525;-78
2023/09/20 15:10:53;;;;;;;1.85;1.35;;;;;;;;;;5102918;28;20074;-75
2023/09/20 15:13:24;;;;;;;4.53;1.50;;;;;;;;;;5102664;28;20062;-76
2023/09/20 15:15:57;;;;;;;2.88;1.42;;;;;;;;;;5102565;28;20054;-74
2023/09/20 15:18:27;;;;;;;1.67;1.40;;;;;;;;;;5102844;28;20043;-72
2023/09/20 15:21:07;;;;;;;2.80;1.52;;;;;;;;;;5102873;28;20447;-78
2023/09/20 15:23:40;;;;;;;1.55;1.30;;;;;;;;;;5084734;28;20055;-74
2023/09/20 15:26:17;;;;;;;1.42;1.02;;;;;;;;;;5102753;28;20055;-73
2023/09/20 15:28:51;;;;;;;1.90;1.33;;;;;;;;;;5100351;28;20051;-79
2023/09/20 15:31:23;;;;;;;2.55;1.20;;;;;;;;;;5100719;28;20745;-74
2023/09/20 15:33:55;;;;;;;2.45;1.58;;;;;;;;;;5102758;28;20039;-74
2023/09/20 15:36:26;;;;;;;1.92;1.15;;;;;;;;;;5102271;28;20043;-73
2023/09/20 15:38:57;;;;;;;2.40;1.30;;;;;;;;;;5102361;28;20050;-73
2023/09/20 15:41:27;;;;;;;1.38;1.15;;;;;;;;;;5101422;28;20051;-75
2023/09/20 15:44:00;;;;;;;1.83;1.17;;;;;;;;;;5101978;28;20046;-72
2023/09/20 15:46:33;;;;;;;1.45;1.25;;;;;;;;;;5101771;28;20392;-73